sensor_id;sensor_type;location;lat;lon;timestamp;pressure;altitude;pressure_sealevel;temperature;humidity
68399;BME280;56258;52.196;13.868;2022-08-19T00:01:23;100459.34;;;29.22;45.21
68399;BME280;56258;52.196;13.868;2022-08-19T00:03:57;100467.31;;;29.23;45.60
68399;BME280;56258;52.196;13.868;2022-08-19T00:06:24;100464.25;;;29.20;45.40
68399;BME280;56258;52.196;13.868;2022-08-19T00:08:51;100473.78;;;29.17;45.30
68399;BME280;56258;52.196;13.868;2022-08-19T00:11:17;100477.94;;;29.20;45.28
68399;BME280;56258;52.196;13.868;2022-08-19T00:13:51;100469.78;;;29.25;45.12
68399;BME280;56258;52.196;13.868;2022-08-19T00:16:18;100470.88;;;29.24;45.28
68399;BME280;56258;52.196;13.868;2022-08-19T00:18:51;100472.22;;;29.21;45.57
68399;BME280;56258;52.196;13.868;2022-08-19T00:21:18;100473.03;;;29.22;45.42
68399;BME280;56258;52.196;13.868;2022-08-19T00:23:45;100471.63;;;29.19;45.43
68399;BME280;56258;52.196;13.868;2022-08-19T00:26:11;100484.25;;;29.20;45.20
68399;BME280;56258;52.196;13.868;2022-08-19T00:28:38;100486.16;;;29.20;45.28
68399;BME280;56258;52.196;13.868;2022-08-19T00:31:07;100487.25;;;29.19;45.28
68399;BME280;56258;52.196;13.868;2022-08-19T00:33:34;100492.47;;;29.20;45.68
68399;BME280;56258;52.196;13.868;2022-08-19T00:36:04;100497.09;;;29.20;45.57
68399;BME280;56258;52.196;13.868;2022-08-19T00:38:34;100489.16;;;29.18;45.62
68399;BME280;56258;52.196;13.868;2022-08-19T00:41:04;100482.84;;;29.18;45.58
68399;BME280;56258;52.196;13.868;2022-08-19T00:43:31;100480.94;;;29.18;45.62
68399;BME280;56258;52.196;13.868;2022-08-19T00:45:58;100484.72;;;29.17;45.47
68399;BME280;56258;52.196;13.868;2022-08-19T00:48:25;100469.63;;;29.15;45.47
68399;BME280;56258;52.196;13.868;2022-08-19T00:50:53;100496.19;;;29.14;45.80
68399;BME280;56258;52.196;13.868;2022-08-19T00:53:23;100497.00;;;29.15;45.76
68399;BME280;56258;52.196;13.868;2022-08-19T00:55:53;100483.56;;;29.13;45.72
68399;BME280;56258;52.196;13.868;2022-08-19T00:58:24;100475.13;;;29.15;45.93
68399;BME280;56258;52.196;13.868;2022-08-19T01:00:53;100462.00;;;29.17;45.85
68399;BME280;56258;52.196;13.868;2022-08-19T01:03:21;100462.00;;;29.17;45.76
68399;BME280;56258;52.196;13.868;2022-08-19T01:05:49;100465.56;;;29.17;45.68
68399;BME280;56258;52.196;13.868;2022-08-19T01:08:18;100460.34;;;29.16;45.99
68399;BME280;56258;52.196;13.868;2022-08-19T01:10:52;100472.38;;;29.15;46.22
68399;BME280;56258;52.196;13.868;2022-08-19T01:13:25;100463.03;;;29.11;45.99
68399;BME280;56258;52.196;13.868;2022-08-19T01:15:59;100470.16;;;29.12;46.17
68399;BME280;56258;52.196;13.868;2022-08-19T01:18:27;100463.03;;;29.11;46.18
68399;BME280;56258;52.196;13.868;2022-08-19T01:20:58;100463.84;;;29.11;46.18
68399;BME280;56258;52.196;13.868;2022-08-19T01:23:27;100463.84;;;29.11;46.29
68399;BME280;56258;52.196;13.868;2022-08-19T01:26:21;100471.22;;;29.11;46.82
68399;BME280;56258;52.196;13.868;2022-08-19T01:28:51;100470.97;;;29.12;46.13
68399;BME280;56258;52.196;13.868;2022-08-19T01:31:22;100474.47;;;29.08;46.48
68399;BME280;56258;52.196;13.868;2022-08-19T01:33:55;100470.16;;;29.12;46.40
68399;BME280;56258;52.196;13.868;2022-08-19T01:36:27;100461.38;;;29.10;46.23
68399;BME280;56258;52.196;13.868;2022-08-19T01:38:55;100447.69;;;29.10;46.30
68399;BME280;56258;52.196;13.868;2022-08-19T01:41:22;100441.63;;;29.08;46.52
68399;BME280;56258;52.196;13.868;2022-08-19T01:43:52;100441.13;;;29.11;46.41
68399;BME280;56258;52.196;13.868;2022-08-19T01:46:39;100440.56;;;29.09;46.81
68399;BME280;56258;52.196;13.868;2022-08-19T01:49:06;100431.81;;;29.12;46.15
68399;BME280;56258;52.196;13.868;2022-08-19T01:51:34;100440.28;;;29.10;46.25
68399;BME280;56258;52.196;13.868;2022-08-19T01:54:09;100438.13;;;29.12;46.33
68399;BME280;56258;52.196;13.868;2022-08-19T01:56:36;100423.03;;;29.10;46.46
68399;BME280;56258;52.196;13.868;2022-08-19T01:59:14;100407.75;;;29.14;46.17
68399;BME280;56258;52.196;13.868;2022-08-19T02:01:42;100407.75;;;29.14;46.34
68399;BME280;56258;52.196;13.868;2022-08-19T02:04:09;100418.81;;;29.19;46.12
68399;BME280;56258;52.196;13.868;2022-08-19T02:06:36;100416.88;;;29.19;46.07
68399;BME280;56258;52.196;13.868;2022-08-19T02:09:06;100425.84;;;29.15;46.31
68399;BME280;56258;52.196;13.868;2022-08-19T02:11:34;100423.09;;;29.15;46.25
68399;BME280;56258;52.196;13.868;2022-08-19T02:14:04;100420.88;;;29.12;46.52
68399;BME280;56258;52.196;13.868;2022-08-19T02:16:32;100423.03;;;29.10;46.33
68399;BME280;56258;52.196;13.868;2022-08-19T02:18:59;100412.34;;;29.08;46.11
68399;BME280;56258;52.196;13.868;2022-08-19T02:21:30;100409.63;;;29.08;46.13
68399;BME280;56258;52.196;13.868;2022-08-19T02:23:57;100408.69;;;29.02;46.31
68399;BME280;56258;52.196;13.868;2022-08-19T02:26:25;100412.84;;;29.05;46.05
68399;BME280;56258;52.196;13.868;2022-08-19T02:28:53;100409.28;;;29.04;46.34
68399;BME280;56258;52.196;13.868;2022-08-19T02:31:22;100420.22;;;29.04;46.15
68399;BME280;56258;52.196;13.868;2022-08-19T02:33:51;100413.09;;;29.03;46.19
68399;BME280;56258;52.196;13.868;2022-08-19T02:36:22;100420.72;;;29.01;46.38
68399;BME280;56258;52.196;13.868;2022-08-19T02:38:50;100423.97;;;28.98;46.24
68399;BME280;56258;52.196;13.868;2022-08-19T02:41:26;100425.56;;;28.94;46.25
68399;BME280;56258;52.196;13.868;2022-08-19T02:43:55;100427.22;;;28.95;46.29
68399;BME280;56258;52.196;13.868;2022-08-19T02:46:45;100426.13;;;28.96;46.11
68399;BME280;56258;52.196;13.868;2022-08-19T02:49:12;100430.69;;;28.91;46.50
68399;BME280;56258;52.196;13.868;2022-08-19T02:51:41;100431.63;;;28.96;46.25
68399;BME280;56258;52.196;13.868;2022-08-19T02:54:10;100417.84;;;28.91;46.42
68399;BME280;56258;52.196;13.868;2022-08-19T02:56:39;100417.59;;;28.93;46.38
68399;BME280;56258;52.196;13.868;2022-08-19T02:59:07;100415.94;;;28.92;46.42
68399;BME280;56258;52.196;13.868;2022-08-19T03:01:38;100412.63;;;28.90;46.33
68399;BME280;56258;52.196;13.868;2022-08-19T03:04:09;100410.13;;;28.88;46.30
68399;BME280;56258;52.196;13.868;2022-08-19T03:06:38;100413.69;;;28.89;46.56
68399;BME280;56258;52.196;13.868;2022-08-19T03:09:05;100421.09;;;28.88;46.46
68399;BME280;56258;52.196;13.868;2022-08-19T03:11:33;100416.09;;;28.85;46.45
68399;BME280;56258;52.196;13.868;2022-08-19T03:14:00;100413.34;;;28.85;46.41
68399;BME280;56258;52.196;13.868;2022-08-19T03:16:30;100425.13;;;28.86;46.34
68399;BME280;56258;52.196;13.868;2022-08-19T03:19:00;100418.34;;;28.88;46.41
68399;BME280;56258;52.196;13.868;2022-08-19T03:21:30;100419.91;;;28.84;46.43
68399;BME280;56258;52.196;13.868;2022-08-19T03:23:59;100428.69;;;28.86;46.37
68399;BME280;56258;52.196;13.868;2022-08-19T03:26:26;100420.31;;;28.76;46.57
68399;BME280;56258;52.196;13.868;2022-08-19T03:28:53;100402.56;;;28.78;46.41
68399;BME280;56258;52.196;13.868;2022-08-19T03:31:25;100400.34;;;28.75;46.56
68399;BME280;56258;52.196;13.868;2022-08-19T03:34:19;100402.75;;;28.72;46.65
68399;BME280;56258;52.196;13.868;2022-08-19T03:36:47;100410.34;;;28.70;46.64
68399;BME280;56258;52.196;13.868;2022-08-19T03:39:15;100419.75;;;28.74;46.66
68399;BME280;56258;52.196;13.868;2022-08-19T03:41:43;100431.25;;;28.76;46.69
68399;BME280;56258;52.196;13.868;2022-08-19T03:44:19;100429.59;;;28.75;46.63
68399;BME280;56258;52.196;13.868;2022-08-19T03:46:55;100435.34;;;28.73;46.71
68399;BME280;56258;52.196;13.868;2022-08-19T03:49:23;100431.50;;;28.74;46.62
68399;BME280;56258;52.196;13.868;2022-08-19T03:51:54;100437.72;;;28.70;46.77
68399;BME280;56258;52.196;13.868;2022-08-19T03:54:24;100446.44;;;28.67;46.78
68399;BME280;56258;52.196;13.868;2022-08-19T03:56:53;100445.34;;;28.68;46.80
68399;BME280;56258;52.196;13.868;2022-08-19T03:59:30;100441.28;;;28.70;46.55
68399;BME280;56258;52.196;13.868;2022-08-19T04:02:00;100429.50;;;28.70;46.85
68399;BME280;56258;52.196;13.868;2022-08-19T04:04:27;100423.56;;;28.73;46.45
68399;BME280;56258;52.196;13.868;2022-08-19T04:06:57;100425.13;;;28.69;46.67
68399;BME280;56258;52.196;13.868;2022-08-19T04:09:24;100439.38;;;28.71;46.50
68399;BME280;56258;52.196;13.868;2022-08-19T04:11:55;100445.09;;;28.69;46.50
68399;BME280;56258;52.196;13.868;2022-08-19T04:14:28;100444.78;;;28.66;47.04
68399;BME280;56258;52.196;13.868;2022-08-19T04:16:59;100453.22;;;28.64;46.70
68399;BME280;56258;52.196;13.868;2022-08-19T04:19:29;100441.53;;;28.69;46.90
68399;BME280;56258;52.196;13.868;2022-08-19T04:21:56;100436.56;;;28.66;46.44
68399;BME280;56258;52.196;13.868;2022-08-19T04:24:22;100445.59;;;28.66;46.68
68399;BME280;56258;52.196;13.868;2022-08-19T04:26:50;100445.84;;;28.65;46.57
68399;BME280;56258;52.196;13.868;2022-08-19T04:29:22;100445.34;;;28.68;46.55
68399;BME280;56258;52.196;13.868;2022-08-19T04:31:52;100439.69;;;28.58;46.77
68399;BME280;56258;52.196;13.868;2022-08-19T04:34:21;100439.22;;;28.61;46.84
68399;BME280;56258;52.196;13.868;2022-08-19T04:36:49;100426.19;;;28.68;46.52
68399;BME280;56258;52.196;13.868;2022-08-19T04:39:23;100432.41;;;28.46;47.33
68399;BME280;56258;52.196;13.868;2022-08-19T04:42:11;100429.50;;;28.36;48.10
68399;BME280;56258;52.196;13.868;2022-08-19T04:44:56;100427.28;;;28.50;47.63
68399;BME280;56258;52.196;13.868;2022-08-19T04:47:24;100432.69;;;28.62;48.01
68399;BME280;56258;52.196;13.868;2022-08-19T04:50:11;100440.56;;;28.75;48.26
68399;BME280;56258;52.196;13.868;2022-08-19T04:52:39;100434.00;;;28.76;48.40
68399;BME280;56258;52.196;13.868;2022-08-19T04:55:10;100431.19;;;28.88;47.73
68399;BME280;56258;52.196;13.868;2022-08-19T04:57:37;100439.81;;;28.96;47.64
68399;BME280;56258;52.196;13.868;2022-08-19T05:00:09;100447.28;;;29.01;47.58
68399;BME280;56258;52.196;13.868;2022-08-19T05:02:37;100439.31;;;28.99;47.20
68399;BME280;56258;52.196;13.868;2022-08-19T05:05:04;100433.00;;;28.99;47.28
68399;BME280;56258;52.196;13.868;2022-08-19T05:07:33;100429.44;;;28.98;47.45
68399;BME280;56258;52.196;13.868;2022-08-19T05:09:59;100426.41;;;28.95;46.73
68399;BME280;56258;52.196;13.868;2022-08-19T05:12:26;100425.56;;;28.94;47.15
68399;BME280;56258;52.196;13.868;2022-08-19T05:14:56;100424.50;;;28.95;47.13
68399;BME280;56258;52.196;13.868;2022-08-19T05:17:25;100440.91;;;28.95;47.13
68399;BME280;56258;52.196;13.868;2022-08-19T05:19:56;100436.00;;;28.97;46.96
68399;BME280;56258;52.196;13.868;2022-08-19T05:22:43;100438.53;;;29.04;46.83
68399;BME280;56258;52.196;13.868;2022-08-19T05:25:13;100432.81;;;29.05;46.62
68399;BME280;56258;52.196;13.868;2022-08-19T05:27:41;100437.97;;;29.02;46.60
68399;BME280;56258;52.196;13.868;2022-08-19T05:30:09;100436.56;;;28.99;46.76
68399;BME280;56258;52.196;13.868;2022-08-19T05:32:37;100439.25;;;28.94;46.71
68399;BME280;56258;52.196;13.868;2022-08-19T05:35:04;100442.00;;;28.94;46.54
68399;BME280;56258;52.196;13.868;2022-08-19T05:37:31;100439.00;;;28.96;46.81
68399;BME280;56258;52.196;13.868;2022-08-19T05:39:58;100444.22;;;28.97;46.65
68399;BME280;56258;52.196;13.868;2022-08-19T05:42:25;100452.94;;;28.94;46.46
68399;BME280;56258;52.196;13.868;2022-08-19T05:44:51;100463.38;;;28.97;46.64
68399;BME280;56258;52.196;13.868;2022-08-19T05:47:18;100463.03;;;28.94;46.55
68399;BME280;56258;52.196;13.868;2022-08-19T05:49:47;100463.03;;;28.94;46.28
68399;BME280;56258;52.196;13.868;2022-08-19T05:52:15;100459.22;;;28.95;46.59
68399;BME280;56258;52.196;13.868;2022-08-19T05:54:45;100458.88;;;28.91;46.69
68399;BME280;56258;52.196;13.868;2022-08-19T05:57:20;100455.31;;;28.91;46.51
68399;BME280;56258;52.196;13.868;2022-08-19T05:59:46;100464.59;;;28.90;46.51
68399;BME280;56258;52.196;13.868;2022-08-19T06:02:19;100466.00;;;28.92;46.62
68399;BME280;56258;52.196;13.868;2022-08-19T06:04:46;100467.09;;;28.91;46.44
68399;BME280;56258;52.196;13.868;2022-08-19T06:07:12;100461.31;;;28.88;46.62
68399;BME280;56258;52.196;13.868;2022-08-19T06:09:40;100461.88;;;28.90;46.56
68399;BME280;56258;52.196;13.868;2022-08-19T06:12:24;100458.06;;;28.91;46.23
68399;BME280;56258;52.196;13.868;2022-08-19T06:14:54;100461.03;;;28.89;46.37
68399;BME280;56258;52.196;13.868;2022-08-19T06:17:26;100457.69;;;28.87;46.42
68399;BME280;56258;52.196;13.868;2022-08-19T06:19:53;100454.75;;;28.89;46.35
68399;BME280;56258;52.196;13.868;2022-08-19T06:22:19;100459.13;;;28.90;46.44
68399;BME280;56258;52.196;13.868;2022-08-19T06:24:46;100448.44;;;28.88;46.36
68399;BME280;56258;52.196;13.868;2022-08-19T06:27:13;100451.50;;;28.92;46.21
68399;BME280;56258;52.196;13.868;2022-08-19T06:29:40;100453.91;;;28.88;46.24
68399;BME280;56258;52.196;13.868;2022-08-19T06:32:06;100460.22;;;28.89;46.40
68399;BME280;56258;52.196;13.868;2022-08-19T06:34:34;100457.69;;;28.87;46.24
68399;BME280;56258;52.196;13.868;2022-08-19T06:37:01;100456.97;;;28.92;46.20
68399;BME280;56258;52.196;13.868;2022-08-19T06:39:32;100466.84;;;28.93;46.04
68399;BME280;56258;52.196;13.868;2022-08-19T06:42:01;100461.63;;;28.91;46.51
68399;BME280;56258;52.196;13.868;2022-08-19T06:44:30;100468.28;;;28.95;46.06
68399;BME280;56258;52.196;13.868;2022-08-19T06:47:09;100473.66;;;28.90;45.87
68399;BME280;56258;52.196;13.868;2022-08-19T06:49:41;100467.25;;;28.85;46.26
68399;BME280;56258;52.196;13.868;2022-08-19T06:52:12;100474.03;;;28.82;46.14
68399;BME280;56258;52.196;13.868;2022-08-19T06:54:41;100480.81;;;28.80;46.42
68399;BME280;56258;52.196;13.868;2022-08-19T06:57:22;100491.50;;;28.81;46.28
68399;BME280;56258;52.196;13.868;2022-08-19T06:59:49;100489.88;;;28.80;46.22
68399;BME280;56258;52.196;13.868;2022-08-19T07:02:15;100489.88;;;28.80;46.25
68399;BME280;56258;52.196;13.868;2022-08-19T07:04:47;100483.91;;;28.83;46.14
68399;BME280;56258;52.196;13.868;2022-08-19T07:07:19;100478.91;;;28.80;46.37
68399;BME280;56258;52.196;13.868;2022-08-19T07:09:48;100468.81;;;28.81;46.22
68399;BME280;56258;52.196;13.868;2022-08-19T07:12:29;100471.28;;;28.82;46.20
68399;BME280;56258;52.196;13.868;2022-08-19T07:15:02;100479.50;;;28.82;46.32
68399;BME280;56258;52.196;13.868;2022-08-19T07:17:30;100486.16;;;28.86;46.08
68399;BME280;56258;52.196;13.868;2022-08-19T07:20:00;100489.38;;;28.83;46.18
68399;BME280;56258;52.196;13.868;2022-08-19T07:22:35;100492.84;;;28.78;46.39
68399;BME280;56258;52.196;13.868;2022-08-19T07:25:03;100489.38;;;28.83;45.97
68399;BME280;56258;52.196;13.868;2022-08-19T07:27:32;100489.72;;;28.87;45.89
68399;BME280;56258;52.196;13.868;2022-08-19T07:30:00;100494.00;;;28.83;46.18
68399;BME280;56258;52.196;13.868;2022-08-19T07:32:27;100497.50;;;28.78;46.30
68399;BME280;56258;52.196;13.868;2022-08-19T07:34:54;100508.69;;;28.76;46.16
68399;BME280;56258;52.196;13.868;2022-08-19T07:37:24;100499.91;;;28.74;46.36
68399;BME280;56258;52.196;13.868;2022-08-19T07:39:58;100514.41;;;28.75;46.39
68399;BME280;56258;52.196;13.868;2022-08-19T07:42:24;100525.44;;;28.63;46.31
68399;BME280;56258;52.196;13.868;2022-08-19T07:44:51;100522.69;;;28.63;46.46
68399;BME280;56258;52.196;13.868;2022-08-19T07:47:18;100534.47;;;28.64;46.64
68399;BME280;56258;52.196;13.868;2022-08-19T07:50:08;100532.31;;;28.66;46.58
68399;BME280;56258;52.196;13.868;2022-08-19T07:52:36;100541.59;;;28.65;46.81
68399;BME280;56258;52.196;13.868;2022-08-19T07:55:07;100545.06;;;28.60;46.54
68399;BME280;56258;52.196;13.868;2022-08-19T07:57:55;100554.00;;;28.56;46.97
68399;BME280;56258;52.196;13.868;2022-08-19T08:00:21;100553.34;;;28.48;46.99
68399;BME280;56258;52.196;13.868;2022-08-19T08:02:50;100558.63;;;28.55;46.86
68399;BME280;56258;52.196;13.868;2022-08-19T08:05:20;100561.94;;;28.57;46.56
68399;BME280;56258;52.196;13.868;2022-08-19T08:08:13;100558.31;;;28.52;46.91
68399;BME280;56258;52.196;13.868;2022-08-19T08:10:59;100563.78;;;28.52;46.57
68399;BME280;56258;52.196;13.868;2022-08-19T08:13:27;100563.47;;;28.36;47.08
68399;BME280;56258;52.196;13.868;2022-08-19T08:15:54;100564.66;;;28.40;47.08
68399;BME280;56258;52.196;13.868;2022-08-19T08:18:23;100567.91;;;28.54;46.78
68399;BME280;56258;52.196;13.868;2022-08-19T08:20:56;100564.09;;;28.55;46.85
68399;BME280;56258;52.196;13.868;2022-08-19T08:23:24;100554.31;;;28.59;46.49
68399;BME280;56258;52.196;13.868;2022-08-19T08:25:55;100562.44;;;28.54;46.66
68399;BME280;56258;52.196;13.868;2022-08-19T08:28:23;100555.31;;;28.53;46.78
68399;BME280;56258;52.196;13.868;2022-08-19T08:30:51;100547.88;;;28.48;46.71
68399;BME280;56258;52.196;13.868;2022-08-19T08:33:23;100533.94;;;28.50;46.83
68399;BME280;56258;52.196;13.868;2022-08-19T08:35:58;100539.41;;;28.50;46.79
68399;BME280;56258;52.196;13.868;2022-08-19T08:38:25;100542.81;;;28.57;46.44
68399;BME280;56258;52.196;13.868;2022-08-19T08:40:58;100548.13;;;28.64;46.46
68399;BME280;56258;52.196;13.868;2022-08-19T08:43:38;100547.94;;;28.54;46.41
68399;BME280;56258;52.196;13.868;2022-08-19T08:46:13;100545.28;;;28.59;46.52
68399;BME280;56258;52.196;13.868;2022-08-19T08:49:26;100563.78;;;28.68;46.25
68399;BME280;56258;52.196;13.868;2022-08-19T08:52:20;100559.06;;;28.64;46.25
68399;BME280;56258;52.196;13.868;2022-08-19T08:54:59;100563.59;;;28.58;46.53
68399;BME280;56258;52.196;13.868;2022-08-19T09:02:53;100580.19;;;28.52;46.41
68399;BME280;56258;52.196;13.868;2022-08-19T09:05:21;100571.91;;;28.35;47.02
68399;BME280;56258;52.196;13.868;2022-08-19T09:10:33;100566.56;;;28.40;46.97
68399;BME280;56258;52.196;13.868;2022-08-19T09:16:14;100559.22;;;28.29;47.35
68399;BME280;56258;52.196;13.868;2022-08-19T09:18:45;100561.09;;;28.40;47.03
68399;BME280;56258;52.196;13.868;2022-08-19T09:21:15;100556.78;;;28.44;46.79
68399;BME280;56258;52.196;13.868;2022-08-19T09:23:42;100556.22;;;28.59;46.37
68399;BME280;56258;52.196;13.868;2022-08-19T09:26:12;100561.47;;;28.60;46.31
68399;BME280;56258;52.196;13.868;2022-08-19T09:28:43;100557.22;;;28.53;46.61
68399;BME280;56258;52.196;13.868;2022-08-19T09:31:22;100556.19;;;28.42;46.76
68399;BME280;56258;52.196;13.868;2022-08-19T09:33:50;100558.50;;;28.33;47.02
68399;BME280;56258;52.196;13.868;2022-08-19T09:36:20;100555.88;;;28.38;46.95
68399;BME280;56258;52.196;13.868;2022-08-19T09:39:00;100560.25;;;28.39;46.74
68399;BME280;56258;52.196;13.868;2022-08-19T09:41:28;100557.16;;;28.36;47.02
68399;BME280;56258;52.196;13.868;2022-08-19T09:43:57;100554.94;;;28.33;47.15
68399;BME280;56258;52.196;13.868;2022-08-19T09:46:27;100549.13;;;28.29;46.96
68399;BME280;56258;52.196;13.868;2022-08-19T09:48:57;100552.88;;;28.40;46.86
68399;BME280;56258;52.196;13.868;2022-08-19T09:51:32;100553.16;;;28.27;47.26
68399;BME280;56258;52.196;13.868;2022-08-19T09:54:03;100556.19;;;28.42;46.96
68399;BME280;56258;52.196;13.868;2022-08-19T09:56:31;100562.75;;;28.41;46.82
68399;BME280;56258;52.196;13.868;2022-08-19T09:59:00;100561.09;;;28.40;46.71
68399;BME280;56258;52.196;13.868;2022-08-19T10:01:29;100568.84;;;28.31;47.06
68399;BME280;56258;52.196;13.868;2022-08-19T10:03:59;100573.16;;;28.27;47.22
68399;BME280;56258;52.196;13.868;2022-08-19T10:06:28;100568.75;;;28.14;47.69
68399;BME280;56258;52.196;13.868;2022-08-19T10:09:12;100574.06;;;28.21;47.28
68399;BME280;56258;52.196;13.868;2022-08-19T10:11:40;100573.16;;;28.27;47.04
68399;BME280;56258;52.196;13.868;2022-08-19T10:14:17;100563.13;;;28.21;47.12
68399;BME280;56258;52.196;13.868;2022-08-19T10:16:48;100558.81;;;28.48;46.76
68399;BME280;56258;52.196;13.868;2022-08-19T10:19:15;100545.41;;;28.35;46.82
68399;BME280;56258;52.196;13.868;2022-08-19T10:21:52;100541.50;;;28.31;46.89
68399;BME280;56258;52.196;13.868;2022-08-19T10:24:19;100547.72;;;28.15;47.22
68399;BME280;56258;52.196;13.868;2022-08-19T10:26:47;100549.31;;;27.87;48.93
68399;BME280;56258;52.196;13.868;2022-08-19T10:29:24;100545.19;;;28.25;47.52
68399;BME280;56258;52.196;13.868;2022-08-19T10:31:59;100547.66;;;28.38;47.14
68399;BME280;56258;52.196;13.868;2022-08-19T10:34:29;100545.47;;;28.69;46.27
68399;BME280;56258;52.196;13.868;2022-08-19T10:36:57;100547.31;;;28.80;45.77
68399;BME280;56258;52.196;13.868;2022-08-19T10:39:29;100544.38;;;28.98;45.43
68399;BME280;56258;52.196;13.868;2022-08-19T10:41:57;100546.72;;;29.07;45.05
68399;BME280;56258;52.196;13.868;2022-08-19T10:44:25;100543.38;;;29.04;45.22
68399;BME280;56258;52.196;13.868;2022-08-19T10:46:58;100549.38;;;29.01;45.35
68399;BME280;56258;52.196;13.868;2022-08-19T10:49:25;100554.75;;;28.96;45.31
68399;BME280;56258;52.196;13.868;2022-08-19T10:51:53;100553.72;;;28.86;45.73
68399;BME280;56258;52.196;13.868;2022-08-19T10:54:45;100563.00;;;28.85;45.66
68399;BME280;56258;52.196;13.868;2022-08-19T10:57:34;100558.38;;;28.85;45.66
68399;BME280;56258;52.196;13.868;2022-08-19T11:00:21;100553.97;;;28.84;45.51
68399;BME280;56258;52.196;13.868;2022-08-19T11:02:50;100556.72;;;28.84;45.50
68399;BME280;56258;52.196;13.868;2022-08-19T11:05:17;100548.59;;;28.89;45.40
68399;BME280;56258;52.196;13.868;2022-08-19T11:07:45;100554.41;;;28.93;45.54
68399;BME280;56258;52.196;13.868;2022-08-19T11:10:13;100555.84;;;28.95;45.29
68399;BME280;56258;52.196;13.868;2022-08-19T11:12:46;100559.88;;;28.93;45.39
68399;BME280;56258;52.196;13.868;2022-08-19T11:15:13;100556.22;;;28.87;45.48
68399;BME280;56258;52.196;13.868;2022-08-19T11:17:40;100557.28;;;28.86;45.07
68399;BME280;56258;52.196;13.868;2022-08-19T11:20:11;100568.47;;;28.85;45.58
68399;BME280;56258;52.196;13.868;2022-08-19T11:22:38;100568.00;;;28.88;45.67
68399;BME280;56258;52.196;13.868;2022-08-19T11:25:09;100581.19;;;28.91;45.49
68399;BME280;56258;52.196;13.868;2022-08-19T11:27:40;100589.97;;;28.93;45.54
68399;BME280;56258;52.196;13.868;2022-08-19T11:30:12;100591.31;;;28.90;45.53
68399;BME280;56258;52.196;13.868;2022-08-19T11:32:41;100595.13;;;28.89;45.58
68399;BME280;56258;52.196;13.868;2022-08-19T11:35:15;100589.66;;;28.89;45.59
68399;BME280;56258;52.196;13.868;2022-08-19T11:37:42;100597.75;;;28.84;45.55
68399;BME280;56258;52.196;13.868;2022-08-19T11:40:09;100610.75;;;28.77;45.84
68399;BME280;56258;52.196;13.868;2022-08-19T11:42:36;100609.09;;;28.76;45.79
68399;BME280;56258;52.196;13.868;2022-08-19T11:45:26;100608.25;;;28.75;45.78
68399;BME280;56258;52.196;13.868;2022-08-19T11:47:55;100612.78;;;28.70;46.02
68399;BME280;56258;52.196;13.868;2022-08-19T11:50:24;100615.78;;;28.68;45.97
68399;BME280;56258;52.196;13.868;2022-08-19T11:52:54;100610.88;;;28.70;46.13
68399;BME280;56258;52.196;13.868;2022-08-19T11:55:22;100616.03;;;28.67;46.03
68399;BME280;56258;52.196;13.868;2022-08-19T11:57:49;100619.84;;;28.66;45.84
68399;BME280;56258;52.196;13.868;2022-08-19T12:00:16;100628.53;;;28.63;46.42
68399;BME280;56258;52.196;13.868;2022-08-19T12:02:42;100620.81;;;28.60;46.47
68399;BME280;56258;52.196;13.868;2022-08-19T12:05:09;100632.94;;;28.64;46.13
68399;BME280;56258;52.196;13.868;2022-08-19T12:07:38;100633.44;;;28.61;46.37
68399;BME280;56258;52.196;13.868;2022-08-19T12:10:06;100641.38;;;28.62;46.19
68399;BME280;56258;52.196;13.868;2022-08-19T12:12:34;100638.06;;;28.60;46.18
68399;BME280;56258;52.196;13.868;2022-08-19T12:15:00;100639.22;;;28.64;46.27
68399;BME280;56258;52.196;13.868;2022-08-19T12:17:28;100638.66;;;28.62;46.19
68399;BME280;56258;52.196;13.868;2022-08-19T12:19:55;100639.34;;;28.58;46.44
68399;BME280;56258;52.196;13.868;2022-08-19T12:22:22;100632.59;;;28.60;46.34
68399;BME280;56258;52.196;13.868;2022-08-19T12:24:48;100632.69;;;28.65;46.25
68399;BME280;56258;52.196;13.868;2022-08-19T12:27:17;100628.13;;;28.71;45.92
68399;BME280;56258;52.196;13.868;2022-08-19T12:30:06;100630.03;;;28.70;45.97
68399;BME280;56258;52.196;13.868;2022-08-19T12:32:34;100633.38;;;28.72;45.71
68399;BME280;56258;52.196;13.868;2022-08-19T12:35:00;100641.34;;;28.74;45.92
68399;BME280;56258;52.196;13.868;2022-08-19T12:37:27;100642.25;;;28.80;45.71
68399;BME280;56258;52.196;13.868;2022-08-19T12:39:54;100640.91;;;28.82;45.58
68399;BME280;56258;52.196;13.868;2022-08-19T12:42:21;100633.78;;;28.81;45.65
68399;BME280;56258;52.196;13.868;2022-08-19T12:44:48;100638.28;;;28.87;45.39
68399;BME280;56258;52.196;13.868;2022-08-19T12:47:16;100640.69;;;28.84;45.64
68399;BME280;56258;52.196;13.868;2022-08-19T12:49:45;100636.19;;;28.77;45.70
68399;BME280;56258;52.196;13.868;2022-08-19T12:52:20;100644.41;;;28.77;45.67
68399;BME280;56258;52.196;13.868;2022-08-19T12:54:49;100642.41;;;28.73;45.71
68399;BME280;56258;52.196;13.868;2022-08-19T12:57:21;100639.06;;;28.71;45.79
68399;BME280;56258;52.196;13.868;2022-08-19T12:59:55;100643.38;;;28.67;46.02
68399;BME280;56258;52.196;13.868;2022-08-19T13:02:22;100643.38;;;28.67;45.99
68399;BME280;56258;52.196;13.868;2022-08-19T13:04:48;100645.78;;;28.63;46.02
68399;BME280;56258;52.196;13.868;2022-08-19T13:07:15;100647.19;;;28.66;46.09
68399;BME280;56258;52.196;13.868;2022-08-19T13:09:42;100644.69;;;28.64;46.10